Time;durP1;ratioP1;P1;durP2;ratioP2;P2;SDS_P1;SDS_P2;PMS_P1;PMS_P2;Temp;Humidity;BMP_temperature;BMP_pressure;BME280_temperature;BME280_humidity;BME280_pressure;Samples;Min_cycle;Max_cycle;Signal;HPM_P1;HPM_P2
2021/11/06 00:01:04;;;;;;;18.20;12.87;;;7.10;99.90;;;;;;5024147;28;20182;-85
2021/11/06 00:03:31;;;;;;;20.57;13.67;;;7.20;99.90;;;;;;5038675;28;20197;-84
2021/11/06 00:06:47;;;;;;;15.53;12.20;;;7.40;99.90;;;;;;5042113;28;20174;-88
2021/11/06 00:12:48;;;;;;;18.07;12.30;;;7.20;99.90;;;;;;5038381;28;20174;-85
2021/11/06 00:15:19;;;;;;;17.27;12.93;;;7.20;99.90;;;;;;5038560;28;20177;-86
2021/11/06 00:17:49;;;;;;;19.03;12.70;;;7.10;99.90;;;;;;5038189;28;20186;-86
2021/11/06 00:20:38;;;;;;;18.27;13.60;;;7.20;99.90;;;;;;5036506;28;20188;-86
2021/11/06 00:23:16;;;;;;;17.63;12.30;;;7.10;99.90;;;;;;5035346;28;20185;-85
2021/11/06 00:25:58;;;;;;;;;;;;;;;;;;;;;
2021/11/06 00:28:50;;;;;;;18.27;11.90;;;7.10;99.90;;;;;;5036376;28;20217;-86
2021/11/06 00:31:17;;;;;;;13.37;11.97;;;7.10;99.90;;;;;;5034819;28;20178;-83
2021/11/06 00:33:49;;;;;;;18.10;11.77;;;6.90;99.90;;;;;;5036745;28;20235;-85
2021/11/06 00:36:15;;;;;;;18.03;12.97;;;7.00;99.90;;;;;;5036122;28;20660;-83
2021/11/06 00:38:41;;;;;;;14.83;12.23;;;7.20;99.90;;;;;;5037459;28;20181;-85
2021/11/06 00:41:06;;;;;;;19.87;13.80;;;7.00;99.90;;;;;;5036141;28;20277;-85
2021/11/06 00:43:32;;;;;;;16.63;13.00;;;7.00;99.90;;;;;;5037571;28;20187;-85
2021/11/06 00:45:58;;;;;;;16.97;13.37;;;7.00;99.90;;;;;;5037201;28;20642;-87
2021/11/06 00:48:26;;;;;;;15.60;12.50;;;7.00;99.90;;;;;;5040287;28;20205;-82
2021/11/06 00:50:52;;;;;;;19.53;13.47;;;6.90;99.90;;;;;;5041463;28;20204;-83
2021/11/06 00:53:18;;;;;;;18.20;13.40;;;6.90;99.90;;;;;;5046586;28;20178;-80
2021/11/06 00:55:44;;;;;;;18.00;13.33;;;6.90;99.90;;;;;;5052283;28;20192;-84
2021/11/06 00:58:21;;;;;;;16.83;13.20;;;7.00;99.90;;;;;;5054326;28;20197;-84
2021/11/06 01:00:47;;;;;;;16.67;12.73;;;7.00;99.90;;;;;;5050736;28;20165;-84
2021/11/06 01:03:12;;;;;;;18.30;13.40;;;6.90;99.90;;;;;;5045345;28;20654;-88
2021/11/06 01:05:38;;;;;;;14.47;12.93;;;6.90;99.90;;;;;;5042878;28;20174;-85
2021/11/06 01:08:04;;;;;;;17.87;13.57;;;6.90;99.90;;;;;;5041780;28;20717;-86
2021/11/06 01:10:29;;;;;;;14.83;12.57;;;6.90;99.90;;;;;;5038824;28;20213;-86
2021/11/06 01:12:58;;;;;;;19.80;13.37;;;6.90;99.90;;;;;;5042744;28;20590;-83
2021/11/06 01:15:27;;;;;;;15.50;13.20;;;6.90;99.90;;;;;;5043694;28;20201;-84
2021/11/06 01:17:55;;;;;;;17.87;13.90;;;6.90;99.90;;;;;;5036199;28;20178;-85
2021/11/06 01:20:20;;;;;;;19.37;14.50;;;6.90;99.90;;;;;;5042082;28;20284;-83
2021/11/06 01:22:46;;;;;;;20.13;13.37;;;6.90;99.90;;;;;;5046279;28;20190;-83
2021/11/06 01:25:14;;;;;;;19.67;13.93;;;6.80;99.90;;;;;;5037451;28;20221;-86
2021/11/06 01:27:39;;;;;;;16.60;13.63;;;6.80;99.90;;;;;;5034619;28;20186;-85
2021/11/06 01:30:09;;;;;;;17.20;13.50;;;6.90;99.90;;;;;;5037067;28;20565;-87
2021/11/06 01:32:35;;;;;;;18.57;14.13;;;6.80;99.90;;;;;;5035456;28;20182;-88
2021/11/06 01:35:01;;;;;;;17.73;13.23;;;6.80;99.90;;;;;;5035603;28;20241;-86
2021/11/06 01:37:28;;;;;;;15.30;12.30;;;6.80;99.90;;;;;;5034761;28;20190;-81
2021/11/06 01:39:54;;;;;;;18.77;13.93;;;6.80;99.90;;;;;;5036891;28;20645;-83
2021/11/06 01:42:21;;;;;;;15.37;13.30;;;6.70;99.90;;;;;;5039810;28;20183;-83
2021/11/06 01:44:51;;;;;;;18.33;13.77;;;6.70;99.90;;;;;;5034487;28;20611;-84
2021/11/06 01:47:17;;;;;;;16.40;12.77;;;6.70;99.90;;;;;;5034303;28;20186;-82
2021/11/06 01:49:43;;;;;;;21.40;12.90;;;6.70;99.90;;;;;;5034070;28;20221;-82
2021/11/06 01:52:09;;;;;;;20.17;13.57;;;6.80;99.90;;;;;;5035934;28;20181;-82
2021/11/06 01:54:35;;;;;;;16.13;12.53;;;6.60;99.90;;;;;;5033657;28;20530;-81
2021/11/06 01:57:02;;;;;;;17.13;12.53;;;6.60;99.90;;;;;;5034842;28;20231;-84
2021/11/06 01:59:29;;;;;;;19.77;12.90;;;6.60;99.90;;;;;;5033443;28;20198;-81
2021/11/06 02:01:56;;;;;;;17.07;12.53;;;6.50;99.90;;;;;;5033494;28;20583;-82
2021/11/06 02:04:22;;;;;;;15.20;12.30;;;6.50;99.90;;;;;;5034333;28;20182;-83
2021/11/06 02:06:48;;;;;;;14.30;11.87;;;6.50;99.90;;;;;;5038816;28;20242;-83
2021/11/06 02:09:14;;;;;;;14.40;11.10;;;6.60;99.90;;;;;;5038831;28;20216;-85
2021/11/06 02:11:40;;;;;;;15.63;12.47;;;6.60;99.90;;;;;;5039399;28;20178;-85
2021/11/06 02:14:12;;;;;;;16.43;11.33;;;6.50;99.90;;;;;;5035662;28;20216;-83
2021/11/06 02:16:38;;;;;;;15.43;11.50;;;6.50;99.90;;;;;;5034789;28;20178;-83
2021/11/06 02:19:04;;;;;;;15.77;10.53;;;6.50;99.90;;;;;;5033485;28;20194;-83
2021/11/06 02:21:34;;;;;;;17.03;10.57;;;6.50;99.90;;;;;;5035219;28;20173;-85
2021/11/06 02:24:00;;;;;;;15.17;11.20;;;6.50;99.90;;;;;;5034189;28;20189;-85
2021/11/06 02:26:26;;;;;;;11.77;10.03;;;6.50;99.90;;;;;;5033412;28;20181;-84
2021/11/06 02:28:57;;;;;;;12.40;9.97;;;6.50;99.90;;;;;;5034431;28;20280;-86
2021/11/06 02:31:24;;;;;;;14.43;10.27;;;6.50;99.90;;;;;;5034570;28;20173;-85
2021/11/06 02:33:51;;;;;;;12.03;9.50;;;6.40;99.90;;;;;;5033214;28;20261;-86
2021/11/06 02:36:18;;;;;;;14.07;10.17;;;6.40;99.90;;;;;;5033542;28;20223;-85
2021/11/06 02:38:44;;;;;;;12.97;9.63;;;6.40;99.90;;;;;;5034482;28;20185;-83
2021/11/06 02:41:09;;;;;;;14.53;9.40;;;6.40;99.90;;;;;;5032862;28;20184;-82
2021/11/06 02:43:35;;;;;;;13.23;9.73;;;6.40;99.90;;;;;;5035289;28;20188;-82
2021/11/06 02:46:01;;;;;;;14.87;9.87;;;6.40;99.90;;;;;;5038027;28;20249;-83
2021/11/06 02:48:26;;;;;;;13.77;9.87;;;6.40;99.90;;;;;;5036525;28;20206;-84
2021/11/06 02:50:52;;;;;;;12.77;9.40;;;6.40;99.90;;;;;;5045980;28;20184;-81
2021/11/06 02:53:19;;;;;;;15.33;9.67;;;6.40;99.90;;;;;;5047670;28;20181;-85
2021/11/06 02:55:48;;;;;;;15.33;9.60;;;6.60;99.90;;;;;;5034977;28;20224;-83
2021/11/06 02:58:13;;;;;;;12.50;9.63;;;6.30;99.90;;;;;;5036743;28;20277;-82
2021/11/06 03:00:45;;;;;;;15.20;9.87;;;6.30;99.90;;;;;;5041776;28;20272;-81
2021/11/06 03:03:12;;;;;;;12.63;9.93;;;6.30;99.90;;;;;;5042484;28;20225;-81
2021/11/06 03:05:37;;;;;;;11.90;9.70;;;6.30;99.90;;;;;;5045190;28;20174;-83
2021/11/06 03:08:05;;;;;;;15.17;9.83;;;6.40;99.90;;;;;;5043443;28;20177;-82
2021/11/06 03:10:31;;;;;;;11.90;9.23;;;6.40;99.90;;;;;;5033699;28;20209;-82
2021/11/06 03:13:00;;;;;;;12.80;10.10;;;6.30;99.90;;;;;;5032839;28;20235;-83
2021/11/06 03:15:28;;;;;;;12.53;9.17;;;6.30;99.90;;;;;;5032641;28;20177;-82
2021/11/06 03:17:54;;;;;;;12.33;9.50;;;6.20;99.90;;;;;;5033872;28;20623;-82
2021/11/06 03:20:20;;;;;;;14.03;10.70;;;6.10;99.90;;;;;;5032416;28;20292;-82
2021/11/06 03:22:46;;;;;;;13.17;10.53;;;6.30;99.90;;;;;;5032243;28;20181;-82
2021/11/06 03:25:13;;;;;;;13.60;9.57;;;6.20;99.90;;;;;;5035312;28;20182;-82
2021/11/06 03:27:39;;;;;;;10.67;8.87;;;6.20;99.90;;;;;;5033876;28;20181;-81
2021/11/06 03:30:08;;;;;;;12.47;9.50;;;6.20;99.90;;;;;;5036208;28;20221;-85
2021/11/06 03:32:35;;;;;;;11.40;9.47;;;6.20;99.90;;;;;;5050820;28;20192;-82
2021/11/06 03:35:01;;;;;;;13.77;9.27;;;6.30;99.90;;;;;;5055433;28;20218;-82
2021/11/06 03:37:26;;;;;;;12.33;9.03;;;6.20;99.90;;;;;;5054900;28;20178;-85
2021/11/06 03:39:54;;;;;;;11.27;8.47;;;6.20;99.90;;;;;;5046093;28;20190;-85
2021/11/06 03:42:23;;;;;;;11.23;8.47;;;6.20;99.90;;;;;;5038708;28;20284;-84
2021/11/06 03:44:51;;;;;;;13.03;8.43;;;6.20;99.90;;;;;;5037495;28;20193;-84
2021/11/06 03:47:18;;;;;;;11.40;9.17;;;6.10;99.90;;;;;;5038533;28;20230;-86
2021/11/06 03:49:45;;;;;;;10.73;8.23;;;6.30;99.90;;;;;;5038210;28;20232;-85
2021/11/06 03:52:10;;;;;;;12.30;8.97;;;6.10;99.90;;;;;;5038598;28;20177;-85
2021/11/06 03:54:36;;;;;;;14.03;8.50;;;6.20;99.90;;;;;;5037060;28;20630;-86
2021/11/06 03:57:02;;;;;;;12.97;9.10;;;6.10;99.90;;;;;;5036268;28;20633;-83
2021/11/06 03:59:30;;;;;;;10.03;8.50;;;6.10;99.90;;;;;;5037901;28;20190;-83
2021/11/06 04:01:56;;;;;;;11.03;8.27;;;6.10;99.90;;;;;;5039870;28;20174;-82
2021/11/06 04:04:22;;;;;;;12.90;9.17;;;6.10;99.90;;;;;;5037414;28;20189;-82
2021/11/06 04:06:49;;;;;;;16.30;8.83;;;6.20;99.90;;;;;;5036153;28;20208;-84
2021/11/06 04:09:14;;;;;;;13.73;9.30;;;6.40;99.90;;;;;;5035878;28;20225;-83
2021/11/06 04:11:40;;;;;;;12.17;8.80;;;6.40;99.90;;;;;;5035522;28;20268;-83
2021/11/06 04:14:06;;;;;;;9.93;8.73;;;6.40;99.90;;;;;;5035414;28;20181;-82
2021/11/06 04:16:32;;;;;;;11.60;9.20;;;6.30;99.90;;;;;;5035116;28;20181;-84
2021/11/06 04:18:58;;;;;;;12.63;9.13;;;6.30;99.90;;;;;;5039280;28;20193;-81
2021/11/06 04:21:24;;;;;;;9.37;8.37;;;6.20;99.90;;;;;;5038829;28;20703;-82
2021/11/06 04:23:50;;;;;;;11.00;8.17;;;6.20;99.90;;;;;;5035512;28;20170;-83
2021/11/06 04:26:16;;;;;;;11.40;8.37;;;6.20;99.90;;;;;;5035269;28;20186;-82
2021/11/06 04:28:42;;;;;;;10.43;8.27;;;6.20;99.90;;;;;;5036357;28;20268;-82
2021/11/06 04:31:07;;;;;;;9.50;8.03;;;6.20;99.90;;;;;;5034702;28;20221;-82
2021/11/06 04:33:33;;;;;;;10.57;8.23;;;6.20;99.90;;;;;;5036988;28;20186;-81
2021/11/06 04:35:59;;;;;;;8.53;7.63;;;6.10;99.90;;;;;;5035864;28;20194;-83
2021/11/06 04:38:24;;;;;;;9.27;7.47;;;6.20;99.90;;;;;;5036194;28;20174;-83
2021/11/06 04:40:50;;;;;;;10.27;7.00;;;6.10;99.90;;;;;;5036199;28;20211;-82
2021/11/06 04:43:16;;;;;;;10.20;7.13;;;6.00;99.90;;;;;;5034513;28;20748;-82
2021/11/06 04:45:42;;;;;;;10.70;7.63;;;5.90;99.90;;;;;;5034747;28;20233;-84
2021/11/06 04:48:08;;;;;;;8.93;7.17;;;5.90;99.90;;;;;;5036658;28;20243;-82
2021/11/06 04:50:33;;;;;;;9.53;6.60;;;6.00;99.90;;;;;;5035407;28;20678;-83
2021/11/06 04:52:59;;;;;;;9.13;6.33;;;5.90;99.90;;;;;;5034563;28;20634;-89
2021/11/06 04:55:25;;;;;;;10.03;7.33;;;5.90;99.90;;;;;;5034777;28;20666;-89
2021/11/06 04:57:51;;;;;;;8.17;6.33;;;5.90;99.90;;;;;;5034196;28;20268;-89
2021/11/06 05:03:16;;;;;;;9.37;6.67;;;5.90;99.90;;;;;;5026715;28;20220;-91
2021/11/06 05:06:00;;;;;;;11.40;6.67;;;6.00;99.90;;;;;;5035137;28;20185;-88
2021/11/06 05:08:27;;;;;;;9.03;5.87;;;5.90;99.90;;;;;;5040769;28;20205;-88
2021/11/06 05:10:53;;;;;;;7.67;5.90;;;5.90;99.90;;;;;;5051097;28;20244;-87
2021/11/06 05:13:18;;;;;;;8.57;6.17;;;5.90;99.90;;;;;;5049197;28;20185;-88
2021/11/06 05:15:45;;;;;;;8.83;6.07;;;6.00;99.90;;;;;;5053559;28;20201;-87
2021/11/06 05:18:17;;;;;;;7.20;5.90;;;6.00;99.90;;;;;;5046288;28;20192;-90
2021/11/06 05:20:43;;;;;;;8.73;6.20;;;6.00;99.90;;;;;;5035467;28;20174;-90
2021/11/06 05:23:13;;;;;;;9.17;6.07;;;6.00;99.90;;;;;;5035752;28;20186;-90
2021/11/06 05:25:45;;;;;;;7.57;5.70;;;6.00;99.90;;;;;;5034863;28;20189;-88
2021/11/06 05:28:13;;;;;;;9.40;6.30;;;6.00;99.90;;;;;;5035957;28;20193;-89
2021/11/06 05:30:55;;;;;;;10.63;6.00;;;6.00;99.90;;;;;;5034152;28;20236;-90
2021/11/06 05:33:33;;;;;;;10.00;6.20;;;6.00;99.90;;;;;;5034460;28;20181;-90
2021/11/06 05:35:59;;;;;;;9.93;6.07;;;6.00;99.90;;;;;;5056856;28;20181;-87
2021/11/06 05:38:28;;;;;;;10.47;5.90;;;6.00;99.90;;;;;;5043515;28;20193;-90
2021/11/06 05:41:16;;;;;;;9.83;6.27;;;6.00;99.90;;;;;;5037052;28;20243;-90
2021/11/06 05:43:57;;;;;;;7.43;5.83;;;6.00;99.90;;;;;;5033818;28;20193;-90
2021/11/06 05:46:29;;;;;;;6.93;5.33;;;6.10;99.90;;;;;;5034332;28;20205;-90
2021/11/06 05:52:54;;;;;;;8.50;5.83;;;6.10;99.90;;;;;;5042025;28;20276;-89
2021/11/06 05:55:18;;;;;;;11.13;6.47;;;6.20;99.90;;;;;;5049823;28;20182;-89
2021/11/06 05:57:45;;;;;;;7.00;5.47;;;6.20;99.90;;;;;;5037173;28;20529;-89
2021/11/06 06:00:18;;;;;;;7.40;6.50;;;6.20;99.90;;;;;;5046330;28;20244;-90
2021/11/06 06:02:48;;;;;;;8.47;6.20;;;6.20;99.90;;;;;;5039261;28;20547;-90
2021/11/06 06:08:40;;;;;;;9.60;6.27;;;6.20;99.90;;;;;;5019695;28;20208;-89
2021/11/06 06:11:16;;;;;;;6.93;5.57;;;6.20;99.90;;;;;;5054416;28;20209;-89
2021/11/06 06:13:45;;;;;;;9.10;6.00;;;6.20;99.90;;;;;;5057094;28;20182;-88
2021/11/06 06:16:12;;;;;;;8.43;6.13;;;6.30;99.90;;;;;;5049881;28;20181;-89
2021/11/06 06:18:57;;;;;;;10.40;6.37;;;6.30;99.90;;;;;;5035337;28;20177;-91
2021/11/06 06:21:32;;;;;;;7.90;5.37;;;6.30;99.90;;;;;;5035383;28;20626;-90
2021/11/06 06:24:00;;;;;;;10.37;5.63;;;6.30;99.90;;;;;;5034781;28;20241;-89
2021/11/06 06:26:27;;;;;;;9.03;5.70;;;6.40;99.90;;;;;;5035485;28;20253;-89
2021/11/06 06:28:53;;;;;;;7.73;5.90;;;6.50;99.90;;;;;;5034554;28;20731;-88
2021/11/06 06:31:21;;;;;;;8.93;5.80;;;6.60;99.90;;;;;;5050448;28;20185;-86
2021/11/06 06:33:47;;;;;;;10.63;6.47;;;6.60;99.90;;;;;;5040581;28;20181;-89
2021/11/06 06:36:14;;;;;;;7.83;6.20;;;6.60;99.90;;;;;;5035540;28;20197;-91
2021/11/06 06:38:47;;;;;;;7.20;5.73;;;6.50;99.90;;;;;;5038912;28;20284;-90
2021/11/06 06:41:15;;;;;;;12.13;5.73;;;6.60;99.90;;;;;;5037047;28;20688;-89
2021/11/06 06:43:41;;;;;;;7.67;5.97;;;6.50;99.90;;;;;;5036425;28;20178;-88
2021/11/06 06:46:07;;;;;;;9.17;5.73;;;6.50;99.90;;;;;;5034752;28;20259;-87
2021/11/06 06:48:33;;;;;;;8.63;5.80;;;6.50;99.90;;;;;;5051883;28;20229;-89
2021/11/06 06:50:59;;;;;;;7.13;5.73;;;6.50;99.90;;;;;;5040713;28;20289;-90
2021/11/06 06:53:25;;;;;;;9.60;6.07;;;6.50;99.90;;;;;;5034121;28;20177;-91
2021/11/06 06:55:54;;;;;;;7.90;5.90;;;6.50;99.90;;;;;;5033650;28;20585;-89
2021/11/06 06:58:19;;;;;;;7.50;6.13;;;6.50;99.90;;;;;;5033773;28;20181;-91
2021/11/06 07:00:45;;;;;;;7.83;6.00;;;6.60;99.90;;;;;;5033289;28;20650;-90
2021/11/06 07:03:26;;;;;;;8.83;6.07;;;6.60;99.90;;;;;;5033665;28;20212;-88
2021/11/06 07:05:52;;;;;;;8.00;5.90;;;6.70;99.90;;;;;;5032993;28;20208;-90
2021/11/06 07:08:20;;;;;;;7.33;5.90;;;6.70;99.90;;;;;;5035031;28;20546;-89
2021/11/06 07:10:50;;;;;;;10.23;5.73;;;6.60;99.90;;;;;;5036689;28;20189;-90
2021/11/06 07:13:23;;;;;;;8.07;5.90;;;6.70;99.90;;;;;;5035857;28;20192;-90
2021/11/06 07:15:50;;;;;;;7.00;5.80;;;6.70;99.90;;;;;;5037446;28;20186;-88
2021/11/06 07:18:16;;;;;;;10.50;6.17;;;6.70;99.90;;;;;;5033785;28;20188;-90
2021/11/06 07:20:42;;;;;;;11.87;6.57;;;6.80;99.90;;;;;;5033315;28;20217;-90
2021/11/06 07:23:08;;;;;;;9.33;6.27;;;6.80;99.90;;;;;;5033363;28;20661;-89
2021/11/06 07:25:36;;;;;;;11.60;6.87;;;6.70;99.90;;;;;;5033964;28;20173;-89
2021/11/06 07:28:03;;;;;;;9.93;7.73;;;6.70;99.90;;;;;;5033449;28;20276;-89
2021/11/06 07:30:29;;;;;;;10.70;7.70;;;6.70;99.90;;;;;;5034488;28;20236;-86
2021/11/06 07:32:55;;;;;;;10.23;8.17;;;6.70;99.90;;;;;;5041230;28;20212;-85
2021/11/06 07:35:21;;;;;;;13.20;7.60;;;6.90;99.90;;;;;;5051204;28;20181;-88
2021/11/06 07:37:52;;;;;;;8.80;7.30;;;6.80;99.90;;;;;;5050213;28;20229;-86
2021/11/06 07:40:18;;;;;;;11.77;7.50;;;6.80;99.90;;;;;;5039877;28;20201;-86
2021/11/06 07:42:49;;;;;;;10.23;7.37;;;6.90;99.90;;;;;;5032116;28;20169;-85
2021/11/06 07:45:18;;;;;;;9.57;7.07;;;7.00;99.90;;;;;;5031451;28;20588;-91
2021/11/06 07:47:44;;;;;;;10.87;7.43;;;7.00;99.90;;;;;;5033199;28;20209;-91
2021/11/06 07:50:11;;;;;;;10.10;6.60;;;7.20;99.90;;;;;;5032490;28;20258;-87
2021/11/06 07:52:38;;;;;;;8.43;6.73;;;7.00;99.90;;;;;;5034740;28;20205;-89
2021/11/06 07:55:06;;;;;;;9.10;6.57;;;7.00;99.90;;;;;;5033115;28;20180;-88
2021/11/06 07:57:33;;;;;;;11.33;6.37;;;7.00;99.90;;;;;;5034354;28;20216;-89
2021/11/06 08:00:04;;;;;;;9.37;6.37;;;6.90;99.90;;;;;;5035735;28;20274;-90
2021/11/06 08:02:30;;;;;;;10.43;6.63;;;7.00;99.90;;;;;;5049674;28;20180;-86
2021/11/06 08:05:03;;;;;;;9.17;7.03;;;7.00;99.90;;;;;;5052076;28;20189;-87
2021/11/06 08:07:28;;;;;;;8.07;6.97;;;7.10;99.90;;;;;;5038266;28;20284;-87
2021/11/06 08:10:00;;;;;;;9.57;6.20;;;7.30;99.90;;;;;;5033568;28;20271;-90
2021/11/06 08:12:27;;;;;;;10.07;6.90;;;7.10;99.90;;;;;;5036014;28;20276;-93
2021/11/06 08:14:55;;;;;;;9.23;6.00;;;7.20;99.90;;;;;;5034226;28;20602;-92
2021/11/06 08:17:23;;;;;;;8.20;6.17;;;7.30;99.90;;;;;;5052391;28;20194;-86
2021/11/06 08:19:50;;;;;;;7.80;6.00;;;7.30;99.90;;;;;;5059594;28;20225;-87
2021/11/06 08:22:17;;;;;;;9.07;6.03;;;7.40;99.90;;;;;;5056205;28;20197;-89
2021/11/06 08:24:47;;;;;;;9.33;6.40;;;7.60;99.90;;;;;;5047153;28;20269;-89
2021/11/06 08:30:44;;;;;;;10.23;7.00;;;7.60;99.90;;;;;;5031225;28;20291;-87
2021/11/06 08:33:11;;;;;;;9.50;7.13;;;7.60;99.90;;;;;;5037038;28;20200;-89
2021/11/06 08:35:47;;;;;;;10.17;7.07;;;7.60;99.90;;;;;;5037189;28;20170;-92
2021/11/06 08:38:13;;;;;;;10.37;6.97;;;7.70;99.90;;;;;;5038222;28;20185;-89
2021/11/06 08:40:39;;;;;;;10.50;7.47;;;7.70;99.90;;;;;;5038080;28;20200;-86
2021/11/06 08:43:05;;;;;;;9.00;6.83;;;7.80;99.90;;;;;;5020838;28;20190;-87
2021/11/06 08:45:30;;;;;;;10.50;6.73;;;7.80;99.90;;;;;;5037480;28;20687;-88
2021/11/06 08:51:16;;;;;;;9.17;6.40;;;7.90;99.90;;;;;;5011403;28;20275;-89
2021/11/06 08:53:45;;;;;;;8.53;6.73;;;7.90;99.90;;;;;;5049085;28;20212;-85
2021/11/06 08:56:11;;;;;;;9.13;7.27;;;8.00;99.90;;;;;;5050382;28;20200;-84
2021/11/06 08:58:44;;;;;;;10.40;7.30;;;8.20;99.90;;;;;;5046530;28;20162;-94
2021/11/06 09:01:15;;;;;;;11.60;7.60;;;8.30;98.80;;;;;;5044741;28;20170;-87
2021/11/06 09:04:52;;;;;;;10.80;7.50;;;8.30;98.70;;;;;;5049897;28;20186;-89
2021/11/06 09:07:51;;;;;;;10.00;6.57;;;8.40;99.00;;;;;;4964795;29;20188;-91
2021/11/06 09:10:19;;;;;;;10.20;8.43;;;8.70;97.90;;;;;;4946815;29;20587;-92
2021/11/06 09:12:47;;;;;;;10.30;7.10;;;8.70;97.50;;;;;;4943836;29;20228;-88
2021/11/06 09:15:15;;;;;;;12.17;8.17;;;8.70;97.90;;;;;;4958147;29;20177;-91
2021/11/06 09:17:42;;;;;;;11.10;7.93;;;8.90;97.50;;;;;;5008146;28;20182;-85
2021/11/06 09:20:11;;;;;;;8.13;7.13;;;8.80;97.20;;;;;;5046622;28;20197;-94
2021/11/06 09:22:39;;;;;;;11.03;7.53;;;8.80;97.60;;;;;;5051521;28;20188;-88
2021/11/06 09:25:06;;;;;;;11.07;7.50;;;8.80;97.40;;;;;;5055188;28;20214;-85
2021/11/06 09:27:35;;;;;;;10.70;6.93;;;8.90;97.20;;;;;;5051259;28;20201;-86
2021/11/06 09:30:02;;;;;;;10.53;7.03;;;8.80;97.40;;;;;;5051433;28;20196;-85
2021/11/06 09:32:38;;;;;;;10.33;7.40;;;8.90;96.80;;;;;;5053952;28;20201;-87
2021/11/06 09:35:08;;;;;;;8.73;7.73;;;9.00;96.80;;;;;;5051876;28;20238;-85
2021/11/06 09:37:36;;;;;;;11.63;7.13;;;9.00;95.90;;;;;;5055466;28;20224;-85
2021/11/06 09:40:07;;;;;;;9.37;6.97;;;9.20;96.60;;;;;;5057379;28;20217;-89
2021/11/06 09:42:36;;;;;;;10.60;7.23;;;9.00;96.50;;;;;;5054238;28;20185;-83
2021/11/06 09:45:05;;;;;;;10.30;6.97;;;9.10;97.20;;;;;;5053622;28;20178;-84
2021/11/06 09:47:44;;;;;;;9.13;6.73;;;9.00;97.40;;;;;;5051060;28;20322;-83
2021/11/06 09:50:18;;;;;;;9.93;8.33;;;9.00;97.30;;;;;;5042235;28;20225;-87
2021/11/06 09:52:47;;;;;;;11.63;7.60;;;9.10;97.40;;;;;;5021990;28;20187;-85
2021/11/06 09:55:35;;;;;;;11.87;7.73;;;9.00;97.40;;;;;;5037323;28;20178;-86
2021/11/06 09:58:04;;;;;;;12.43;7.67;;;9.20;97.50;;;;;;5037534;28;20174;-85
2021/11/06 10:00:30;;;;;;;9.40;7.23;;;9.20;97.50;;;;;;5036921;28;20209;-85
2021/11/06 10:02:58;;;;;;;9.77;7.23;;;9.20;97.10;;;;;;5040621;28;20169;-89
2021/11/06 10:05:46;;;;;;;8.80;7.30;;;9.50;97.40;;;;;;5036565;28;20189;-85
2021/11/06 10:08:24;;;;;;;11.43;7.20;;;9.30;97.40;;;;;;5035047;28;20181;-85
2021/11/06 10:10:53;;;;;;;12.83;7.87;;;9.40;96.90;;;;;;5037872;28;20205;-83
2021/11/06 10:13:20;;;;;;;9.93;6.47;;;9.40;97.20;;;;;;5038340;28;20181;-86
2021/11/06 10:15:49;;;;;;;7.33;5.93;;;9.30;97.10;;;;;;5036104;28;20276;-83
2021/11/06 10:18:23;;;;;;;10.13;6.87;;;9.40;96.70;;;;;;5034974;28;20223;-86
2021/11/06 10:21:02;;;;;;;10.23;7.17;;;9.40;96.80;;;;;;5035703;28;20181;-85
2021/11/06 10:23:30;;;;;;;9.20;6.87;;;9.30;97.00;;;;;;5035833;28;20180;-85
2021/11/06 10:26:18;;;;;;;9.23;7.20;;;9.40;96.50;;;;;;5034207;28;20535;-89
2021/11/06 10:29:03;;;;;;;11.13;7.13;;;9.50;97.00;;;;;;5039238;28;20237;-83
2021/11/06 10:31:28;;;;;;;10.97;7.10;;;9.40;97.30;;;;;;5036744;28;20666;-84
2021/11/06 10:33:54;;;;;;;8.93;6.60;;;9.50;96.90;;;;;;5041468;28;20246;-86
2021/11/06 10:36:27;;;;;;;10.90;6.43;;;9.60;96.40;;;;;;5033470;28;20201;-88
2021/11/06 10:39:19;;;;;;;12.93;6.40;;;9.60;95.80;;;;;;5031914;28;20185;-93
2021/11/06 10:41:44;;;;;;;9.03;6.33;;;9.50;96.00;;;;;;5011247;28;20174;-87
2021/11/06 10:44:14;;;;;;;10.20;7.10;;;9.40;96.30;;;;;;5014480;28;20249;-87
2021/11/06 10:46:40;;;;;;;8.77;6.77;;;9.40;96.80;;;;;;5014857;28;20639;-87
2021/11/06 10:49:30;;;;;;;7.97;6.47;;;9.40;97.00;;;;;;5013590;28;20333;-87
2021/11/06 10:52:11;;;;;;;9.07;7.10;;;9.40;97.20;;;;;;5016094;28;20179;-89
2021/11/06 10:55:07;;;;;;;9.43;7.37;;;9.50;97.10;;;;;;5021938;28;20194;-88
2021/11/06 10:57:34;;;;;;;8.50;6.83;;;9.70;96.40;;;;;;5021321;28;20178;-86
2021/11/06 11:00:06;;;;;;;8.97;7.17;;;9.70;95.70;;;;;;5023763;28;20540;-89
2021/11/06 11:02:32;;;;;;;8.50;6.60;;;9.80;95.40;;;;;;5019767;28;20270;-91
2021/11/06 11:04:57;;;;;;;9.13;6.80;;;9.70;95.60;;;;;;5018739;28;20240;-90
2021/11/06 11:07:23;;;;;;;11.87;7.60;;;9.60;96.00;;;;;;5017942;28;20184;-91
2021/11/06 11:09:49;;;;;;;10.60;7.10;;;9.60;96.00;;;;;;5017505;28;20214;-89
2021/11/06 11:12:16;;;;;;;7.40;6.53;;;9.70;96.40;;;;;;5021229;28;20530;-91
2021/11/06 11:14:51;;;;;;;9.70;6.57;;;9.80;96.30;;;;;;5032153;28;20237;-93
2021/11/06 11:17:17;;;;;;;8.20;6.07;;;9.80;96.40;;;;;;5016762;28;20196;-92
2021/11/06 11:19:47;;;;;;;7.57;5.70;;;9.70;95.40;;;;;;5016066;28;20189;-84
2021/11/06 11:22:24;;;;;;;7.07;6.37;;;9.80;94.50;;;;;;5032891;28;20602;-85
2021/11/06 11:24:50;;;;;;;8.43;5.97;;;9.90;95.00;;;;;;5038799;28;20280;-85
2021/11/06 11:27:17;;;;;;;9.23;6.47;;;10.00;95.10;;;;;;5026543;28;20616;-90
2021/11/06 11:29:49;;;;;;;7.20;5.73;;;9.90;95.30;;;;;;5012750;28;20583;-84
2021/11/06 11:32:16;;;;;;;8.27;6.17;;;9.90;95.50;;;;;;5015549;28;20670;-88
2021/11/06 11:34:48;;;;;;;9.63;6.87;;;10.10;94.00;;;;;;5026610;28;20178;-82
2021/11/06 11:37:15;;;;;;;6.27;5.57;;;10.00;93.80;;;;;;5034065;28;20362;-89
2021/11/06 11:39:43;;;;;;;8.87;6.97;;;10.10;93.40;;;;;;5035975;28;20205;-86
2021/11/06 11:42:09;;;;;;;7.50;6.53;;;10.00;93.80;;;;;;5042869;28;20631;-82
2021/11/06 11:45:07;;;;;;;12.07;6.90;;;10.00;94.50;;;;;;5039863;28;20197;-85
2021/11/06 11:47:36;;;;;;;8.57;5.63;;;10.10;94.30;;;;;;5028500;28;20198;-84
2021/11/06 11:50:05;;;;;;;8.20;6.27;;;10.20;93.20;;;;;;5038761;28;20217;-84
2021/11/06 11:52:37;;;;;;;11.70;8.23;;;10.20;93.60;;;;;;5033206;28;20528;-87
2021/11/06 11:55:12;;;;;;;21.13;11.17;;;10.20;93.90;;;;;;5036441;28;20170;-86
2021/11/06 11:57:42;;;;;;;10.73;7.80;;;10.20;93.90;;;;;;5034440;28;20176;-86
2021/11/06 12:00:19;;;;;;;8.00;5.97;;;10.10;93.20;;;;;;5036317;28;20216;-84
2021/11/06 12:03:13;;;;;;;10.57;6.53;;;10.30;92.90;;;;;;5034965;28;20622;-84
2021/11/06 12:05:48;;;;;;;9.77;7.57;;;10.20;93.50;;;;;;5013645;28;20186;-84
2021/11/06 12:08:15;;;;;;;10.97;7.60;;;10.20;93.80;;;;;;5021574;28;20183;-87
2021/11/06 12:10:59;;;;;;;7.93;6.17;;;10.10;94.60;;;;;;5036153;28;20241;-83
2021/11/06 12:13:30;;;;;;;9.63;6.43;;;10.20;94.70;;;;;;5037921;28;20173;-85
2021/11/06 12:16:00;;;;;;;10.30;6.60;;;10.30;94.60;;;;;;5037707;28;20188;-86
2021/11/06 12:18:41;;;;;;;9.57;6.63;;;10.40;94.50;;;;;;5029138;28;20174;-86
2021/11/06 12:21:15;;;;;;;8.73;6.17;;;10.20;95.70;;;;;;5019773;28;20281;-88
2021/11/06 12:24:00;;;;;;;10.17;6.40;;;10.20;96.70;;;;;;5016163;28;20175;-86
2021/11/06 12:26:31;;;;;;;9.23;6.67;;;10.10;97.80;;;;;;5029638;28;20174;-85
2021/11/06 12:29:06;;;;;;;7.47;6.33;;;10.10;98.60;;;;;;5037278;28;20209;-87
2021/11/06 12:31:36;;;;;;;8.90;6.13;;;9.90;99.70;;;;;;5037344;28;20197;-84
2021/11/06 12:34:02;;;;;;;11.33;7.40;;;9.90;99.90;;;;;;5037706;28;20217;-84
2021/11/06 12:36:30;;;;;;;11.23;7.77;;;9.90;99.70;;;;;;5035826;28;20185;-85
2021/11/06 12:38:58;;;;;;;8.87;7.03;;;9.90;99.90;;;;;;5034948;28;20276;-84
2021/11/06 12:41:28;;;;;;;8.40;6.47;;;10.00;99.90;;;;;;5036555;28;20177;-84
2021/11/06 12:43:56;;;;;;;6.67;6.03;;;10.10;99.90;;;;;;5037158;28;20276;-83
2021/11/06 12:46:27;;;;;;;12.73;7.17;;;10.10;99.90;;;;;;5035488;28;20194;-83
2021/11/06 12:48:55;;;;;;;8.97;6.80;;;10.10;99.90;;;;;;5035222;28;20221;-85
2021/11/06 12:51:27;;;;;;;8.87;6.57;;;10.00;99.90;;;;;;5034296;28;20178;-84
2021/11/06 12:53:56;;;;;;;10.80;6.93;;;10.00;99.90;;;;;;5034935;28;20181;-86
2021/11/06 12:56:25;;;;;;;10.30;7.37;;;9.90;99.90;;;;;;5034107;28;20178;-84
2021/11/06 12:59:07;;;;;;;11.67;7.37;;;9.90;99.90;;;;;;5035231;28;20665;-84
2021/11/06 13:01:36;;;;;;;10.43;7.20;;;10.00;99.90;;;;;;5033475;28;20185;-86
2021/11/06 13:04:05;;;;;;;8.57;6.67;;;10.00;99.90;;;;;;5017224;28;20287;-83
2021/11/06 13:06:38;;;;;;;8.77;6.77;;;10.10;99.90;;;;;;5034477;28;20174;-86
2021/11/06 13:09:11;;;;;;;10.67;9.17;;;10.20;99.90;;;;;;5033422;28;20231;-86
2021/11/06 13:11:56;;;;;;;11.97;6.03;;;10.20;99.30;;;;;;5033804;28;20192;-85
2021/11/06 13:14:37;;;;;;;10.00;5.73;;;10.10;99.00;;;;;;5035071;28;20177;-84
2021/11/06 13:17:10;;;;;;;9.80;6.50;;;10.20;98.50;;;;;;5034438;28;20181;-86
2021/11/06 13:19:50;;;;;;;9.23;6.00;;;10.30;98.00;;;;;;5018000;28;20642;-87
2021/11/06 13:22:25;;;;;;;9.03;5.70;;;10.30;97.80;;;;;;5014800;28;20193;-87